Impacts TAF Board
For situational awareness. Not to be used for flight planning purposes.
IDs:

KMIA - Miami Intl, FL, US

Issued at 2048 UTC 30 Jun 2022
Updated at 2247 UTC 30 Jun 2022
Potential Impact None Slight Moderate High
Time2153Z 30/23Z 01/00Z 01/01Z 01/02Z 01/03Z 01/04Z 01/05Z 01/06Z 01/07Z 01/08Z 01/09Z 01/10Z 01/11Z>>
Type OBS PRVL PRVL PRVL PRVL PRVL PRVL PRVL PRVL PRVL PRVL PRVL PRVL PRVL
VIS 10 >6 >6 >6 >6 >6 >6 >6 >6 >6 >6 >6 >6 >6
CIG 65 60 60 60 60 60 60 -- -- 80 80 80 80 80
Cover BKN BKN BKN BKN BKN BKN BKN SCT SCT BKN BKN BKN BKN BKN
FltCat VFR VFR VFR VFR VFR VFR VFR VFR VFR VFR VFR VFR VFR VFR
WX -- -- -- -- -- -- -- -- -- VCSH VCSH VCSH VCSH VCSH
WDir 160 100 100 100 100 100 100 VRB VRB VRB VRB VRB VRB VRB
WSpd 8 6 6 6 6 6 6 4 4 4 4 4 4 4
WGst -- -- -- -- -- -- -- -- -- -- -- -- -- --
WSHgt -- -- -- -- -- -- -- -- -- -- -- -- -- --
WSDir -- -- -- -- -- -- -- -- -- -- -- -- -- --
WSSpd -- -- -- -- -- -- -- -- -- -- -- -- -- --
Raw TAF
KMIA 302048Z 3021/0124 11013KT P6SM VCTS SCT030CB BKN050
  FM302200 10006KT P6SM SCT030 BKN060
  FM010500 VRB04KT P6SM FEW025 SCT250
  FM010700 VRB04KT P6SM VCSH SCT030 BKN080
  FM011400 12009KT P6SM VCSH SCT025 BKN080
  PROB30 0115/0121 6SM TSRA BKN025CB


Raw METAR
KMIA 302153Z 16008KT 10SM SCT034 BKN065 BKN250 30/22 A3008 RMK AO2 LTG DSNT NW SLP185 T03000222 $
KMIA 302053Z 11015KT 10SM SCT026 BKN033 BKN250 31/23 A3008 RMK AO2 LTG DSNT W-N SLP185 CB DSNT NW-N MOV NW T03060228 55009 $
KMIA 301953Z 11015KT 10SM SCT034 BKN042 BKN250 31/23 A3007 RMK AO2 LTG DSNT NW SLP182 CB DSNT NW T03110233 $

METAR Board
Radar Display
Forecast Discussion
For situational awareness. Not to be used for flight planning purposes.